sensor_id;sensor_type;location;lat;lon;timestamp;temperature;humidity
43087;DHT22;28708;52.224;6.924;2023-02-13T00:01:15;7.90;99.90
43087;DHT22;28708;52.224;6.924;2023-02-13T00:03:41;7.90;99.90
43087;DHT22;28708;52.224;6.924;2023-02-13T00:06:07;7.90;99.90
43087;DHT22;28708;52.224;6.924;2023-02-13T00:08:32;7.90;99.90
43087;DHT22;28708;52.224;6.924;2023-02-13T00:10:58;7.80;99.90
43087;DHT22;28708;52.224;6.924;2023-02-13T00:13:24;7.80;99.90
43087;DHT22;28708;52.224;6.924;2023-02-13T00:15:58;7.80;99.90
43087;DHT22;28708;52.224;6.924;2023-02-13T00:18:25;7.70;99.90
43087;DHT22;28708;52.224;6.924;2023-02-13T00:21:02;7.70;99.90
43087;DHT22;28708;52.224;6.924;2023-02-13T00:23:29;7.70;99.90
43087;DHT22;28708;52.224;6.924;2023-02-13T00:25:56;7.70;99.90
43087;DHT22;28708;52.224;6.924;2023-02-13T00:28:22;7.70;99.90
43087;DHT22;28708;52.224;6.924;2023-02-13T00:30:48;7.70;99.90
43087;DHT22;28708;52.224;6.924;2023-02-13T00:33:14;7.60;99.90
43087;DHT22;28708;52.224;6.924;2023-02-13T00:35:39;7.60;99.90
43087;DHT22;28708;52.224;6.924;2023-02-13T00:38:05;7.70;99.90
43087;DHT22;28708;52.224;6.924;2023-02-13T00:40:31;7.70;99.90
43087;DHT22;28708;52.224;6.924;2023-02-13T00:42:58;7.70;99.90
43087;DHT22;28708;52.224;6.924;2023-02-13T00:45:23;7.60;99.90
43087;DHT22;28708;52.224;6.924;2023-02-13T00:47:49;7.60;99.90
43087;DHT22;28708;52.224;6.924;2023-02-13T00:50:15;7.60;99.90
43087;DHT22;28708;52.224;6.924;2023-02-13T00:52:40;7.60;99.90
43087;DHT22;28708;52.224;6.924;2023-02-13T00:55:06;7.70;99.90
43087;DHT22;28708;52.224;6.924;2023-02-13T00:57:32;7.70;99.90
43087;DHT22;28708;52.224;6.924;2023-02-13T00:59:57;7.60;99.90
43087;DHT22;28708;52.224;6.924;2023-02-13T01:02:24;7.60;99.90
43087;DHT22;28708;52.224;6.924;2023-02-13T01:04:49;7.60;99.90
43087;DHT22;28708;52.224;6.924;2023-02-13T01:07:16;7.60;99.90
43087;DHT22;28708;52.224;6.924;2023-02-13T01:09:43;7.50;99.90
43087;DHT22;28708;52.224;6.924;2023-02-13T01:12:08;7.50;99.90
43087;DHT22;28708;52.224;6.924;2023-02-13T01:14:34;7.60;99.90
43087;DHT22;28708;52.224;6.924;2023-02-13T01:17:00;7.60;99.90
43087;DHT22;28708;52.224;6.924;2023-02-13T01:19:26;7.50;99.90
43087;DHT22;28708;52.224;6.924;2023-02-13T01:21:51;7.50;99.90
43087;DHT22;28708;52.224;6.924;2023-02-13T01:24:17;7.50;99.90
43087;DHT22;28708;52.224;6.924;2023-02-13T01:26:43;7.50;99.90
43087;DHT22;28708;52.224;6.924;2023-02-13T01:29:11;7.50;99.90
43087;DHT22;28708;52.224;6.924;2023-02-13T01:31:38;7.50;99.90
43087;DHT22;28708;52.224;6.924;2023-02-13T01:34:04;7.50;99.90
43087;DHT22;28708;52.224;6.924;2023-02-13T01:36:30;7.50;99.90
43087;DHT22;28708;52.224;6.924;2023-02-13T01:38:57;7.50;99.90
43087;DHT22;28708;52.224;6.924;2023-02-13T01:41:24;7.50;99.90
43087;DHT22;28708;52.224;6.924;2023-02-13T01:43:55;7.50;99.90
43087;DHT22;28708;52.224;6.924;2023-02-13T01:46:37;7.40;99.90
43087;DHT22;28708;52.224;6.924;2023-02-13T01:49:14;7.50;99.90
43087;DHT22;28708;52.224;6.924;2023-02-13T01:51:40;7.50;99.90
43087;DHT22;28708;52.224;6.924;2023-02-13T01:54:14;7.40;99.90
43087;DHT22;28708;52.224;6.924;2023-02-13T01:59:21;7.40;99.90
43087;DHT22;28708;52.224;6.924;2023-02-13T02:01:49;7.40;99.90
43087;DHT22;28708;52.224;6.924;2023-02-13T02:04:25;7.40;99.90
43087;DHT22;28708;52.224;6.924;2023-02-13T02:07:05;7.40;99.90
43087;DHT22;28708;52.224;6.924;2023-02-13T02:09:35;7.40;99.90
43087;DHT22;28708;52.224;6.924;2023-02-13T02:12:25;7.30;99.90
43087;DHT22;28708;52.224;6.924;2023-02-13T02:14:53;7.40;99.90
43087;DHT22;28708;52.224;6.924;2023-02-13T02:17:24;7.30;99.90
43087;DHT22;28708;52.224;6.924;2023-02-13T02:25:33;7.40;99.90
43087;DHT22;28708;52.224;6.924;2023-02-13T02:28:34;7.40;99.90
43087;DHT22;28708;52.224;6.924;2023-02-13T02:41:55;7.40;99.90
43087;DHT22;28708;52.224;6.924;2023-02-13T02:44:41;7.40;99.90
43087;DHT22;28708;52.224;6.924;2023-02-13T02:47:24;7.40;99.90
43087;DHT22;28708;52.224;6.924;2023-02-13T02:53:25;7.30;99.90
43087;DHT22;28708;52.224;6.924;2023-02-13T02:58:54;7.30;99.90
43087;DHT22;28708;52.224;6.924;2023-02-13T03:01:41;7.30;99.90
43087;DHT22;28708;52.224;6.924;2023-02-13T03:04:37;7.30;99.90
43087;DHT22;28708;52.224;6.924;2023-02-13T03:07:23;7.20;99.90
43087;DHT22;28708;52.224;6.924;2023-02-13T03:09:56;7.20;99.90
43087;DHT22;28708;52.224;6.924;2023-02-13T03:12:46;7.20;99.90
43087;DHT22;28708;52.224;6.924;2023-02-13T03:15:37;7.30;99.90
43087;DHT22;28708;52.224;6.924;2023-02-13T03:18:23;7.30;99.90
43087;DHT22;28708;52.224;6.924;2023-02-13T03:21:16;7.30;99.90
43087;DHT22;28708;52.224;6.924;2023-02-13T03:24:10;7.30;99.90
43087;DHT22;28708;52.224;6.924;2023-02-13T03:26:41;7.30;99.90
43087;DHT22;28708;52.224;6.924;2023-02-13T03:29:43;7.30;99.90
43087;DHT22;28708;52.224;6.924;2023-02-13T03:32:48;7.30;99.90
43087;DHT22;28708;52.224;6.924;2023-02-13T03:35:21;7.30;99.90
43087;DHT22;28708;52.224;6.924;2023-02-13T03:38:15;7.30;99.90
43087;DHT22;28708;52.224;6.924;2023-02-13T03:41:03;7.30;99.90
43087;DHT22;28708;52.224;6.924;2023-02-13T03:46:27;7.30;99.90
43087;DHT22;28708;52.224;6.924;2023-02-13T03:48:54;7.30;99.90
43087;DHT22;28708;52.224;6.924;2023-02-13T03:51:49;7.30;99.90
43087;DHT22;28708;52.224;6.924;2023-02-13T03:54:22;7.40;99.90
43087;DHT22;28708;52.224;6.924;2023-02-13T03:57:08;7.40;99.90
43087;DHT22;28708;52.224;6.924;2023-02-13T03:59:55;7.50;99.90
43087;DHT22;28708;52.224;6.924;2023-02-13T04:02:24;7.50;99.90
43087;DHT22;28708;52.224;6.924;2023-02-13T04:05:08;7.40;99.90
43087;DHT22;28708;52.224;6.924;2023-02-13T04:07:35;7.40;99.90
43087;DHT22;28708;52.224;6.924;2023-02-13T04:10:05;7.50;99.90
43087;DHT22;28708;52.224;6.924;2023-02-13T04:15:16;7.30;99.90
43087;DHT22;28708;52.224;6.924;2023-02-13T04:17:51;7.30;99.90
43087;DHT22;28708;52.224;6.924;2023-02-13T04:20:19;7.40;99.90
43087;DHT22;28708;52.224;6.924;2023-02-13T04:22:46;7.40;99.90
43087;DHT22;28708;52.224;6.924;2023-02-13T04:25:13;7.40;99.90
43087;DHT22;28708;52.224;6.924;2023-02-13T04:27:39;7.50;99.90
43087;DHT22;28708;52.224;6.924;2023-02-13T04:30:07;7.50;99.90
43087;DHT22;28708;52.224;6.924;2023-02-13T04:32:33;7.50;99.90
43087;DHT22;28708;52.224;6.924;2023-02-13T04:34:59;7.50;99.90
43087;DHT22;28708;52.224;6.924;2023-02-13T04:37:25;7.40;99.90
43087;DHT22;28708;52.224;6.924;2023-02-13T04:39:50;7.50;99.90
43087;DHT22;28708;52.224;6.924;2023-02-13T04:42:16;7.50;99.90
43087;DHT22;28708;52.224;6.924;2023-02-13T04:44:42;7.50;99.90
43087;DHT22;28708;52.224;6.924;2023-02-13T04:47:07;7.50;99.90
43087;DHT22;28708;52.224;6.924;2023-02-13T04:49:33;7.40;99.90
43087;DHT22;28708;52.224;6.924;2023-02-13T04:51:58;7.50;99.90
43087;DHT22;28708;52.224;6.924;2023-02-13T04:54:24;7.50;99.90
43087;DHT22;28708;52.224;6.924;2023-02-13T04:56:50;7.50;99.90
43087;DHT22;28708;52.224;6.924;2023-02-13T04:59:15;7.50;99.90
43087;DHT22;28708;52.224;6.924;2023-02-13T05:01:41;7.50;99.90
43087;DHT22;28708;52.224;6.924;2023-02-13T05:04:06;7.40;99.90
43087;DHT22;28708;52.224;6.924;2023-02-13T05:06:32;7.40;99.90
43087;DHT22;28708;52.224;6.924;2023-02-13T05:08:58;7.30;99.90
43087;DHT22;28708;52.224;6.924;2023-02-13T05:11:23;7.40;99.90
43087;DHT22;28708;52.224;6.924;2023-02-13T05:13:49;7.40;99.90
43087;DHT22;28708;52.224;6.924;2023-02-13T05:16:14;7.40;99.90
43087;DHT22;28708;52.224;6.924;2023-02-13T05:18:40;7.30;99.90
43087;DHT22;28708;52.224;6.924;2023-02-13T05:21:06;7.30;99.90
43087;DHT22;28708;52.224;6.924;2023-02-13T05:23:50;7.40;99.90
43087;DHT22;28708;52.224;6.924;2023-02-13T05:26:15;7.40;99.90
43087;DHT22;28708;52.224;6.924;2023-02-13T05:28:41;7.40;99.90
43087;DHT22;28708;52.224;6.924;2023-02-13T05:31:25;7.40;99.90
43087;DHT22;28708;52.224;6.924;2023-02-13T05:33:51;7.40;99.90
43087;DHT22;28708;52.224;6.924;2023-02-13T05:36:16;7.50;99.90
43087;DHT22;28708;52.224;6.924;2023-02-13T05:38:42;7.50;99.90
43087;DHT22;28708;52.224;6.924;2023-02-13T05:41:07;7.50;99.90
43087;DHT22;28708;52.224;6.924;2023-02-13T05:43:33;7.50;99.90
43087;DHT22;28708;52.224;6.924;2023-02-13T05:46:07;7.50;99.90
43087;DHT22;28708;52.224;6.924;2023-02-13T05:48:33;7.50;99.90
43087;DHT22;28708;52.224;6.924;2023-02-13T05:50:59;7.40;99.90
43087;DHT22;28708;52.224;6.924;2023-02-13T05:53:25;7.40;99.90
43087;DHT22;28708;52.224;6.924;2023-02-13T05:55:50;7.40;99.90
43087;DHT22;28708;52.224;6.924;2023-02-13T05:58:17;7.40;99.90
43087;DHT22;28708;52.224;6.924;2023-02-13T06:00:43;7.50;99.90
43087;DHT22;28708;52.224;6.924;2023-02-13T06:03:09;7.40;99.90
43087;DHT22;28708;52.224;6.924;2023-02-13T06:05:35;7.40;99.90
43087;DHT22;28708;52.224;6.924;2023-02-13T06:08:00;7.50;99.90
43087;DHT22;28708;52.224;6.924;2023-02-13T06:10:26;7.50;99.90
43087;DHT22;28708;52.224;6.924;2023-02-13T06:12:52;7.50;99.90
43087;DHT22;28708;52.224;6.924;2023-02-13T06:15:17;7.40;99.90
43087;DHT22;28708;52.224;6.924;2023-02-13T06:17:43;7.50;99.90
43087;DHT22;28708;52.224;6.924;2023-02-13T06:20:09;7.50;99.90
43087;DHT22;28708;52.224;6.924;2023-02-13T06:22:35;7.50;99.90
43087;DHT22;28708;52.224;6.924;2023-02-13T06:25:00;7.50;99.90
43087;DHT22;28708;52.224;6.924;2023-02-13T06:27:26;7.50;99.90
43087;DHT22;28708;52.224;6.924;2023-02-13T06:29:52;7.50;99.90
43087;DHT22;28708;52.224;6.924;2023-02-13T06:32:17;7.50;99.90
43087;DHT22;28708;52.224;6.924;2023-02-13T06:34:43;7.60;99.90
43087;DHT22;28708;52.224;6.924;2023-02-13T06:37:08;7.40;99.90
43087;DHT22;28708;52.224;6.924;2023-02-13T06:39:34;7.50;99.90
43087;DHT22;28708;52.224;6.924;2023-02-13T06:42:00;7.50;99.90
43087;DHT22;28708;52.224;6.924;2023-02-13T06:44:25;7.50;99.90
43087;DHT22;28708;52.224;6.924;2023-02-13T06:46:51;7.50;99.90
43087;DHT22;28708;52.224;6.924;2023-02-13T06:49:16;7.50;99.90
43087;DHT22;28708;52.224;6.924;2023-02-13T06:51:42;7.50;99.90
43087;DHT22;28708;52.224;6.924;2023-02-13T06:54:08;7.50;99.90
43087;DHT22;28708;52.224;6.924;2023-02-13T06:56:33;7.60;99.90
43087;DHT22;28708;52.224;6.924;2023-02-13T06:58:59;7.50;99.90
43087;DHT22;28708;52.224;6.924;2023-02-13T07:01:24;7.50;99.90
43087;DHT22;28708;52.224;6.924;2023-02-13T07:03:50;7.60;99.90
43087;DHT22;28708;52.224;6.924;2023-02-13T07:06:20;7.60;99.90
43087;DHT22;28708;52.224;6.924;2023-02-13T07:08:46;7.60;99.90
43087;DHT22;28708;52.224;6.924;2023-02-13T07:11:18;7.60;99.90
43087;DHT22;28708;52.224;6.924;2023-02-13T07:13:44;7.60;99.90
43087;DHT22;28708;52.224;6.924;2023-02-13T07:16:10;7.60;99.90
43087;DHT22;28708;52.224;6.924;2023-02-13T07:18:36;7.60;99.90
43087;DHT22;28708;52.224;6.924;2023-02-13T07:21:03;7.60;99.90
43087;DHT22;28708;52.224;6.924;2023-02-13T07:23:28;7.60;99.90
43087;DHT22;28708;52.224;6.924;2023-02-13T07:25:54;7.60;99.90
43087;DHT22;28708;52.224;6.924;2023-02-13T07:28:19;7.60;99.90
43087;DHT22;28708;52.224;6.924;2023-02-13T07:30:45;7.60;99.90
43087;DHT22;28708;52.224;6.924;2023-02-13T07:33:11;7.60;99.90
43087;DHT22;28708;52.224;6.924;2023-02-13T07:35:36;7.60;99.90
43087;DHT22;28708;52.224;6.924;2023-02-13T07:38:03;7.60;99.90
43087;DHT22;28708;52.224;6.924;2023-02-13T07:40:29;7.60;99.90
43087;DHT22;28708;52.224;6.924;2023-02-13T07:42:55;7.70;99.90
43087;DHT22;28708;52.224;6.924;2023-02-13T07:45:20;7.70;99.90
43087;DHT22;28708;52.224;6.924;2023-02-13T07:47:46;7.60;99.90
43087;DHT22;28708;52.224;6.924;2023-02-13T07:50:12;7.70;99.90
43087;DHT22;28708;52.224;6.924;2023-02-13T07:52:38;7.70;99.90
43087;DHT22;28708;52.224;6.924;2023-02-13T07:55:04;7.70;99.90
43087;DHT22;28708;52.224;6.924;2023-02-13T07:57:30;7.70;99.90
43087;DHT22;28708;52.224;6.924;2023-02-13T07:59:57;7.70;99.90
43087;DHT22;28708;52.224;6.924;2023-02-13T08:02:22;7.70;99.90
43087;DHT22;28708;52.224;6.924;2023-02-13T08:04:48;7.70;99.90
43087;DHT22;28708;52.224;6.924;2023-02-13T08:07:15;7.80;99.90
43087;DHT22;28708;52.224;6.924;2023-02-13T08:09:43;7.80;99.90
43087;DHT22;28708;52.224;6.924;2023-02-13T08:12:28;7.90;99.90
43087;DHT22;28708;52.224;6.924;2023-02-13T08:14:54;8.00;99.90
43087;DHT22;28708;52.224;6.924;2023-02-13T08:17:20;8.10;99.90
43087;DHT22;28708;52.224;6.924;2023-02-13T08:19:45;8.10;99.90
43087;DHT22;28708;52.224;6.924;2023-02-13T08:22:11;8.20;99.90
43087;DHT22;28708;52.224;6.924;2023-02-13T08:24:37;8.10;99.90
43087;DHT22;28708;52.224;6.924;2023-02-13T08:27:02;8.20;99.90
43087;DHT22;28708;52.224;6.924;2023-02-13T08:29:28;8.20;99.90
43087;DHT22;28708;52.224;6.924;2023-02-13T08:31:54;8.20;99.90
43087;DHT22;28708;52.224;6.924;2023-02-13T08:34:19;8.20;99.90
43087;DHT22;28708;52.224;6.924;2023-02-13T08:36:45;8.20;99.90
43087;DHT22;28708;52.224;6.924;2023-02-13T08:39:11;8.30;99.90
43087;DHT22;28708;52.224;6.924;2023-02-13T08:41:36;8.40;99.90
43087;DHT22;28708;52.224;6.924;2023-02-13T08:44:02;8.50;99.90
43087;DHT22;28708;52.224;6.924;2023-02-13T08:46:28;8.50;99.90
43087;DHT22;28708;52.224;6.924;2023-02-13T08:48:54;8.60;99.90
43087;DHT22;28708;52.224;6.924;2023-02-13T08:51:20;8.50;99.90
43087;DHT22;28708;52.224;6.924;2023-02-13T08:53:45;8.50;99.90
43087;DHT22;28708;52.224;6.924;2023-02-13T08:56:11;8.50;99.90
43087;DHT22;28708;52.224;6.924;2023-02-13T08:58:37;8.50;99.90
43087;DHT22;28708;52.224;6.924;2023-02-13T09:01:06;8.50;99.90
43087;DHT22;28708;52.224;6.924;2023-02-13T09:03:33;8.50;99.90
43087;DHT22;28708;52.224;6.924;2023-02-13T09:06:00;8.50;99.90
43087;DHT22;28708;52.224;6.924;2023-02-13T09:08:26;8.60;99.90
43087;DHT22;28708;52.224;6.924;2023-02-13T09:10:59;8.60;99.90
43087;DHT22;28708;52.224;6.924;2023-02-13T09:13:27;8.80;99.90
43087;DHT22;28708;52.224;6.924;2023-02-13T09:15:53;8.70;99.90
43087;DHT22;28708;52.224;6.924;2023-02-13T09:18:18;8.70;99.90
43087;DHT22;28708;52.224;6.924;2023-02-13T09:20:44;8.80;99.90
43087;DHT22;28708;52.224;6.924;2023-02-13T09:23:10;8.90;99.90
43087;DHT22;28708;52.224;6.924;2023-02-13T09:25:35;9.00;99.90
43087;DHT22;28708;52.224;6.924;2023-02-13T09:28:01;8.90;99.90
43087;DHT22;28708;52.224;6.924;2023-02-13T09:30:27;8.90;99.90
43087;DHT22;28708;52.224;6.924;2023-02-13T09:32:53;9.00;99.90
43087;DHT22;28708;52.224;6.924;2023-02-13T09:35:19;8.90;99.90
43087;DHT22;28708;52.224;6.924;2023-02-13T09:37:47;9.00;99.90
43087;DHT22;28708;52.224;6.924;2023-02-13T09:40:29;9.00;99.90
43087;DHT22;28708;52.224;6.924;2023-02-13T09:49:15;9.00;99.90
43087;DHT22;28708;52.224;6.924;2023-02-13T09:51:45;9.20;99.90
43087;DHT22;28708;52.224;6.924;2023-02-13T09:54:15;9.20;99.90
43087;DHT22;28708;52.224;6.924;2023-02-13T09:56:55;9.40;99.90
43087;DHT22;28708;52.224;6.924;2023-02-13T10:16:08;9.30;99.90
43087;DHT22;28708;52.224;6.924;2023-02-13T10:21:33;9.40;99.90
43087;DHT22;28708;52.224;6.924;2023-02-13T10:24:17;9.50;99.90
43087;DHT22;28708;52.224;6.924;2023-02-13T10:26:46;9.40;99.90
43087;DHT22;28708;52.224;6.924;2023-02-13T10:29:25;9.50;99.90
43087;DHT22;28708;52.224;6.924;2023-02-13T10:32:16;9.50;99.90
43087;DHT22;28708;52.224;6.924;2023-02-13T10:34:45;9.70;99.90
43087;DHT22;28708;52.224;6.924;2023-02-13T10:37:14;9.80;99.90
43087;DHT22;28708;52.224;6.924;2023-02-13T10:39:43;10.10;99.90
43087;DHT22;28708;52.224;6.924;2023-02-13T10:42:45;10.10;99.90
43087;DHT22;28708;52.224;6.924;2023-02-13T10:48:23;10.10;99.90
43087;DHT22;28708;52.224;6.924;2023-02-13T10:51:15;10.00;99.90
43087;DHT22;28708;52.224;6.924;2023-02-13T10:59:42;10.30;99.90
43087;DHT22;28708;52.224;6.924;2023-02-13T11:04:43;10.20;99.90
43087;DHT22;28708;52.224;6.924;2023-02-13T11:07:17;10.10;99.90
43087;DHT22;28708;52.224;6.924;2023-02-13T11:09:45;10.10;99.90
43087;DHT22;28708;52.224;6.924;2023-02-13T11:12:33;10.00;99.90
43087;DHT22;28708;52.224;6.924;2023-02-13T11:15:05;10.00;99.90
43087;DHT22;28708;52.224;6.924;2023-02-13T11:17:34;10.00;99.90
43087;DHT22;28708;52.224;6.924;2023-02-13T11:20:20;10.10;99.90
43087;DHT22;28708;52.224;6.924;2023-02-13T11:22:48;10.40;99.90
43087;DHT22;28708;52.224;6.924;2023-02-13T11:25:20;10.30;99.90
43087;DHT22;28708;52.224;6.924;2023-02-13T11:27:49;12.40;99.90
43087;DHT22;28708;52.224;6.924;2023-02-13T11:30:34;13.60;99.90
43087;DHT22;28708;52.224;6.924;2023-02-13T11:33:05;12.80;99.90
43087;DHT22;28708;52.224;6.924;2023-02-13T11:35:34;11.80;99.90
43087;DHT22;28708;52.224;6.924;2023-02-13T11:40:45;10.60;99.90
43087;DHT22;28708;52.224;6.924;2023-02-13T11:43:30;12.00;99.90
43087;DHT22;28708;52.224;6.924;2023-02-13T11:46:20;14.00;99.90
43087;DHT22;28708;52.224;6.924;2023-02-13T11:49:05;14.20;99.90
43087;DHT22;28708;52.224;6.924;2023-02-13T11:51:49;13.00;99.90
43087;DHT22;28708;52.224;6.924;2023-02-13T11:54:22;11.70;99.90
43087;DHT22;28708;52.224;6.924;2023-02-13T11:56:55;11.10;99.90
43087;DHT22;28708;52.224;6.924;2023-02-13T11:59:22;10.70;99.90
43087;DHT22;28708;52.224;6.924;2023-02-13T12:02:22;10.60;99.90
43087;DHT22;28708;52.224;6.924;2023-02-13T12:04:50;10.60;99.90
43087;DHT22;28708;52.224;6.924;2023-02-13T12:09:50;10.60;99.90
43087;DHT22;28708;52.224;6.924;2023-02-13T12:12:32;10.60;99.90
43087;DHT22;28708;52.224;6.924;2023-02-13T12:15:01;10.80;99.90
43087;DHT22;28708;52.224;6.924;2023-02-13T12:17:29;11.00;99.90
43087;DHT22;28708;52.224;6.924;2023-02-13T12:19:55;11.30;99.90
43087;DHT22;28708;52.224;6.924;2023-02-13T12:22:39;11.40;99.90
43087;DHT22;28708;52.224;6.924;2023-02-13T12:38:44;10.60;99.90
43087;DHT22;28708;52.224;6.924;2023-02-13T12:44:49;10.70;99.90
43087;DHT22;28708;52.224;6.924;2023-02-13T12:47:30;10.70;99.90
43087;DHT22;28708;52.224;6.924;2023-02-13T12:58:35;10.80;99.90
43087;DHT22;28708;52.224;6.924;2023-02-13T13:01:39;10.70;99.90
43087;DHT22;28708;52.224;6.924;2023-02-13T13:09:35;10.90;99.90
43087;DHT22;28708;52.224;6.924;2023-02-13T13:12:24;10.90;99.90
43087;DHT22;28708;52.224;6.924;2023-02-13T13:18:11;11.10;99.90
43087;DHT22;28708;52.224;6.924;2023-02-13T13:20:55;11.10;99.90
43087;DHT22;28708;52.224;6.924;2023-02-13T13:28:52;11.40;99.90
43087;DHT22;28708;52.224;6.924;2023-02-13T13:31:20;11.30;99.90
43087;DHT22;28708;52.224;6.924;2023-02-13T13:33:49;11.30;99.90
43087;DHT22;28708;52.224;6.924;2023-02-13T13:42:19;11.50;99.90
43087;DHT22;28708;52.224;6.924;2023-02-13T13:49:53;11.30;99.90
43087;DHT22;28708;52.224;6.924;2023-02-13T13:52:31;11.30;99.90
43087;DHT22;28708;52.224;6.924;2023-02-13T13:54:59;11.40;99.90
43087;DHT22;28708;52.224;6.924;2023-02-13T14:00:25;11.40;99.90
43087;DHT22;28708;52.224;6.924;2023-02-13T14:03:21;11.60;99.90
43087;DHT22;28708;52.224;6.924;2023-02-13T14:06:05;11.60;99.90
43087;DHT22;28708;52.224;6.924;2023-02-13T14:13:53;11.70;99.90
43087;DHT22;28708;52.224;6.924;2023-02-13T14:16:41;11.70;99.90
43087;DHT22;28708;52.224;6.924;2023-02-13T14:19:32;11.80;99.90
43087;DHT22;28708;52.224;6.924;2023-02-13T14:22:35;11.80;99.90
43087;DHT22;28708;52.224;6.924;2023-02-13T14:25:18;11.80;99.90
43087;DHT22;28708;52.224;6.924;2023-02-13T14:27:57;12.00;99.90
43087;DHT22;28708;52.224;6.924;2023-02-13T14:30:31;12.00;99.90
43087;DHT22;28708;52.224;6.924;2023-02-13T14:33:27;11.80;99.90
43087;DHT22;28708;52.224;6.924;2023-02-13T14:36:07;11.90;99.90
43087;DHT22;28708;52.224;6.924;2023-02-13T14:38:34;12.00;99.90
43087;DHT22;28708;52.224;6.924;2023-02-13T14:41:00;11.80;99.90
43087;DHT22;28708;52.224;6.924;2023-02-13T14:43:58;11.80;99.90
43087;DHT22;28708;52.224;6.924;2023-02-13T14:46:34;12.00;99.90
43087;DHT22;28708;52.224;6.924;2023-02-13T14:49:12;11.80;99.90
43087;DHT22;28708;52.224;6.924;2023-02-13T14:51:43;11.90;99.90
43087;DHT22;28708;52.224;6.924;2023-02-13T14:57:04;11.70;99.90
43087;DHT22;28708;52.224;6.924;2023-02-13T14:59:32;11.90;99.90
43087;DHT22;28708;52.224;6.924;2023-02-13T15:02:20;11.80;99.90
43087;DHT22;28708;52.224;6.924;2023-02-13T15:04:53;11.80;99.90
43087;DHT22;28708;52.224;6.924;2023-02-13T15:07:26;11.90;99.90
43087;DHT22;28708;52.224;6.924;2023-02-13T15:10:27;11.80;99.90
43087;DHT22;28708;52.224;6.924;2023-02-13T15:12:58;11.80;99.90
43087;DHT22;28708;52.224;6.924;2023-02-13T15:15:34;11.70;99.90
43087;DHT22;28708;52.224;6.924;2023-02-13T15:18:09;11.70;99.90
43087;DHT22;28708;52.224;6.924;2023-02-13T15:20:41;11.60;99.90
43087;DHT22;28708;52.224;6.924;2023-02-13T15:23:21;11.60;99.90
43087;DHT22;28708;52.224;6.924;2023-02-13T15:25:47;11.60;99.90
43087;DHT22;28708;52.224;6.924;2023-02-13T15:28:19;11.70;99.90
43087;DHT22;28708;52.224;6.924;2023-02-13T15:30:58;11.70;99.90
43087;DHT22;28708;52.224;6.924;2023-02-13T15:33:32;11.50;99.90
43087;DHT22;28708;52.224;6.924;2023-02-13T15:36:00;11.50;99.90
43087;DHT22;28708;52.224;6.924;2023-02-13T15:38:34;11.40;99.90
43087;DHT22;28708;52.224;6.924;2023-02-13T15:41:10;11.40;99.90
43087;DHT22;28708;52.224;6.924;2023-02-13T15:43:39;11.50;99.90
43087;DHT22;28708;52.224;6.924;2023-02-13T15:46:27;11.40;99.90
43087;DHT22;28708;52.224;6.924;2023-02-13T15:48:55;11.20;99.90
43087;DHT22;28708;52.224;6.924;2023-02-13T15:51:28;11.20;99.90
43087;DHT22;28708;52.224;6.924;2023-02-13T15:54:04;11.20;99.90
43087;DHT22;28708;52.224;6.924;2023-02-13T15:56:30;11.10;99.90
43087;DHT22;28708;52.224;6.924;2023-02-13T15:58:59;11.00;99.90
43087;DHT22;28708;52.224;6.924;2023-02-13T16:01:25;11.00;99.90
43087;DHT22;28708;52.224;6.924;2023-02-13T16:04:13;10.80;99.90
43087;DHT22;28708;52.224;6.924;2023-02-13T16:06:41;10.80;99.90
43087;DHT22;28708;52.224;6.924;2023-02-13T16:09:23;10.60;99.90
43087;DHT22;28708;52.224;6.924;2023-02-13T16:11:55;10.50;99.90
43087;DHT22;28708;52.224;6.924;2023-02-13T16:14:26;10.60;99.90
43087;DHT22;28708;52.224;6.924;2023-02-13T16:19:26;10.50;99.90
43087;DHT22;28708;52.224;6.924;2023-02-13T16:21:53;10.40;99.90
43087;DHT22;28708;52.224;6.924;2023-02-13T16:24:21;10.20;99.90
43087;DHT22;28708;52.224;6.924;2023-02-13T16:26:48;10.10;99.90
43087;DHT22;28708;52.224;6.924;2023-02-13T16:29:20;10.10;99.90
43087;DHT22;28708;52.224;6.924;2023-02-13T16:31:47;10.00;99.90
43087;DHT22;28708;52.224;6.924;2023-02-13T16:36:46;9.80;99.90
43087;DHT22;28708;52.224;6.924;2023-02-13T16:39:31;9.70;99.90
43087;DHT22;28708;52.224;6.924;2023-02-13T16:41:59;9.70;99.90
43087;DHT22;28708;52.224;6.924;2023-02-13T16:44:30;9.60;99.90
43087;DHT22;28708;52.224;6.924;2023-02-13T16:49:28;9.50;99.90
43087;DHT22;28708;52.224;6.924;2023-02-13T16:52:20;9.40;99.90
43087;DHT22;28708;52.224;6.924;2023-02-13T16:54:51;9.30;99.90
43087;DHT22;28708;52.224;6.924;2023-02-13T16:57:37;9.20;99.90
43087;DHT22;28708;52.224;6.924;2023-02-13T17:00:16;9.20;99.90
43087;DHT22;28708;52.224;6.924;2023-02-13T17:02:45;9.00;99.90
43087;DHT22;28708;52.224;6.924;2023-02-13T17:05:24;8.90;99.90
43087;DHT22;28708;52.224;6.924;2023-02-13T17:07:51;8.80;99.90
43087;DHT22;28708;52.224;6.924;2023-02-13T17:10:28;8.70;99.90
43087;DHT22;28708;52.224;6.924;2023-02-13T17:12:58;8.70;99.90
43087;DHT22;28708;52.224;6.924;2023-02-13T17:15:26;8.60;99.90
43087;DHT22;28708;52.224;6.924;2023-02-13T17:17:52;8.60;99.90
43087;DHT22;28708;52.224;6.924;2023-02-13T17:20:24;8.50;99.90
43087;DHT22;28708;52.224;6.924;2023-02-13T17:22:56;8.50;99.90
43087;DHT22;28708;52.224;6.924;2023-02-13T17:25:24;8.40;99.90
43087;DHT22;28708;52.224;6.924;2023-02-13T17:27:59;8.30;99.90
43087;DHT22;28708;52.224;6.924;2023-02-13T17:30:30;8.30;99.90
43087;DHT22;28708;52.224;6.924;2023-02-13T17:33:09;8.20;99.90
43087;DHT22;28708;52.224;6.924;2023-02-13T17:35:35;8.20;99.90
43087;DHT22;28708;52.224;6.924;2023-02-13T17:38:01;8.10;99.90
43087;DHT22;28708;52.224;6.924;2023-02-13T17:40:27;8.00;99.90
43087;DHT22;28708;52.224;6.924;2023-02-13T17:42:55;8.10;99.90
43087;DHT22;28708;52.224;6.924;2023-02-13T17:45:25;8.00;99.90
43087;DHT22;28708;52.224;6.924;2023-02-13T17:47:51;8.00;99.90
43087;DHT22;28708;52.224;6.924;2023-02-13T17:50:17;7.90;99.90
43087;DHT22;28708;52.224;6.924;2023-02-13T17:52:44;7.90;99.90
43087;DHT22;28708;52.224;6.924;2023-02-13T17:55:16;7.80;99.90
43087;DHT22;28708;52.224;6.924;2023-02-13T17:57:42;7.80;99.90
43087;DHT22;28708;52.224;6.924;2023-02-13T18:00:08;7.70;99.90
43087;DHT22;28708;52.224;6.924;2023-02-13T18:02:40;7.60;99.90
43087;DHT22;28708;52.224;6.924;2023-02-13T18:05:09;7.60;99.90
43087;DHT22;28708;52.224;6.924;2023-02-13T18:07:35;7.50;99.90
43087;DHT22;28708;52.224;6.924;2023-02-13T18:10:01;7.50;99.90
43087;DHT22;28708;52.224;6.924;2023-02-13T18:12:27;7.50;99.90
43087;DHT22;28708;52.224;6.924;2023-02-13T18:14:53;7.40;99.90
43087;DHT22;28708;52.224;6.924;2023-02-13T18:17:19;7.40;99.90
43087;DHT22;28708;52.224;6.924;2023-02-13T18:19:45;7.40;99.90
43087;DHT22;28708;52.224;6.924;2023-02-13T18:22:11;7.40;99.90
43087;DHT22;28708;52.224;6.924;2023-02-13T18:24:40;7.40;99.90
43087;DHT22;28708;52.224;6.924;2023-02-13T18:27:06;7.40;99.90
43087;DHT22;28708;52.224;6.924;2023-02-13T18:29:34;7.40;99.90
43087;DHT22;28708;52.224;6.924;2023-02-13T18:32:03;7.30;99.90